createdAt,value
2018-04-27T00:00:30.020Z,13.13
2018-04-27T00:02:58.726Z,22.10
2018-04-27T00:05:26.258Z,13.47
2018-04-27T00:07:53.779Z,13.20
2018-04-27T00:10:21.294Z,18.53
2018-04-27T00:12:48.859Z,12.00
2018-04-27T00:15:16.424Z,10.83
2018-04-27T00:17:43.955Z,15.83
2018-04-27T00:20:11.999Z,13.48
2018-04-27T00:22:39.565Z,15.73
2018-04-27T00:25:07.694Z,9.40
2018-04-27T00:27:35.254Z,13.07
2018-04-27T00:30:03.555Z,14.30
2018-04-27T00:32:31.075Z,14.40
2018-04-27T00:34:58.654Z,13.17
2018-04-27T00:37:26.933Z,11.33
2018-04-27T00:39:55.226Z,10.55
2018-04-27T00:42:23.377Z,10.00
2018-04-27T00:44:51.655Z,16.20
2018-04-27T00:47:19.163Z,16.83
2018-04-27T00:49:46.709Z,12.67
2018-04-27T00:52:26.862Z,13.82
2018-04-27T01:03:59.791Z,12.17
2018-04-27T01:06:27.310Z,15.85
2018-04-27T01:08:54.821Z,14.20
2018-04-27T01:11:22.382Z,15.52
2018-04-27T01:13:49.930Z,14.30
2018-04-27T01:16:17.462Z,11.57
2018-04-27T01:18:45.775Z,13.40
2018-04-27T01:21:13.808Z,18.90
2018-04-27T01:23:42.087Z,12.30
2018-04-27T01:26:11.223Z,16.40
2018-04-27T01:28:38.751Z,15.00
2018-04-27T01:31:06.282Z,14.47
2018-04-27T01:33:33.846Z,14.57
2018-04-27T01:36:01.354Z,15.43
2018-04-27T01:38:28.871Z,16.90
2018-04-27T01:40:56.421Z,15.33
2018-04-27T01:43:24.703Z,15.80
2018-04-27T01:45:52.975Z,16.23
2018-04-27T01:48:21.818Z,15.80
2018-04-27T01:50:49.347Z,14.20
2018-04-27T01:53:17.626Z,17.70
2018-04-27T01:55:45.154Z,14.97
2018-04-27T01:58:14.387Z,15.20
2018-04-27T02:00:41.906Z,16.10
2018-04-27T02:03:09.469Z,18.10
2018-04-27T02:05:37.746Z,12.50
2018-04-27T02:08:06.026Z,12.13
2018-04-27T02:10:35.007Z,15.30
2018-04-27T02:13:02.564Z,12.52
2018-04-27T02:15:30.088Z,18.15
2018-04-27T02:17:57.664Z,13.57
2018-04-27T02:20:25.178Z,13.90
2018-04-27T02:22:52.703Z,14.90
2018-04-27T02:25:20.289Z,15.50
2018-04-27T02:27:48.434Z,16.30
2018-04-27T02:30:17.275Z,19.87
2018-04-27T02:32:44.867Z,12.83
2018-04-27T02:35:12.411Z,16.57
2018-04-27T02:37:39.959Z,15.77
2018-04-27T02:40:08.295Z,21.05
2018-04-27T02:42:36.591Z,21.83
2018-04-27T02:45:04.110Z,14.70
2018-04-27T02:47:31.666Z,13.90
2018-04-27T02:49:59.191Z,11.70
2018-04-27T02:52:26.703Z,14.33
2018-04-27T02:54:54.745Z,13.00
2018-04-27T02:57:22.283Z,14.27
2018-04-27T02:59:49.803Z,13.33
2018-04-27T03:02:17.365Z,11.70
2018-04-27T03:04:44.900Z,15.10
2018-04-27T03:07:12.454Z,12.00
2018-04-27T03:09:40.776Z,13.27
2018-04-27T03:12:08.288Z,13.17
2018-04-27T03:14:35.794Z,17.90
2018-04-27T03:17:03.658Z,18.17
2018-04-27T03:19:31.177Z,13.90
2018-04-27T03:21:59.466Z,16.37
2018-04-27T03:24:27.794Z,17.93
2018-04-27T03:26:55.307Z,14.43
2018-04-27T03:29:23.556Z,16.17
2018-04-27T03:31:51.881Z,15.67
2018-04-27T03:34:19.453Z,17.23
2018-04-27T03:36:46.941Z,16.63
2018-04-27T03:39:26.487Z,16.00
2018-04-27T03:44:48.786Z,18.23
2018-04-27T03:47:16.480Z,23.50
2018-04-27T03:49:43.999Z,16.67
2018-04-27T03:52:11.564Z,17.30
2018-04-27T03:54:39.080Z,13.10
2018-04-27T03:57:06.592Z,12.97
2018-04-27T03:59:46.434Z,15.63
2018-04-27T04:02:27.159Z,19.60
2018-04-27T04:05:06.619Z,20.07
2018-04-27T04:07:34.151Z,15.53
2018-04-27T04:10:01.667Z,16.17
2018-04-27T04:12:29.231Z,13.37
2018-04-27T04:14:56.773Z,16.77
2018-04-27T04:17:24.286Z,18.80
2018-04-27T04:19:52.615Z,18.70
2018-04-27T04:22:20.144Z,23.12
2018-04-27T04:24:47.670Z,34.67
2018-04-27T04:27:15.503Z,26.70
2018-04-27T04:29:44.379Z,24.70
2018-04-27T04:32:11.895Z,21.87
2018-04-27T04:34:40.203Z,19.50
2018-04-27T04:37:07.768Z,24.10
2018-04-27T04:39:35.320Z,25.20
2018-04-27T04:42:03.191Z,27.20
2018-04-27T04:44:30.854Z,29.30
2018-04-27T04:46:58.462Z,32.63
2018-04-27T04:49:26.115Z,28.63
2018-04-27T04:51:53.656Z,31.90
2018-04-27T04:54:21.293Z,30.87
2018-04-27T04:56:48.871Z,27.30
2018-04-27T04:59:16.421Z,29.10
2018-04-27T05:01:43.954Z,29.77
2018-04-27T05:04:11.606Z,40.15
2018-04-27T05:06:39.148Z,29.43
2018-04-27T05:09:06.697Z,27.47
2018-04-27T05:11:34.258Z,28.70
2018-04-27T05:14:01.793Z,32.60
2018-04-27T05:16:29.310Z,34.67
2018-04-27T05:18:56.915Z,30.25
2018-04-27T05:21:24.433Z,24.30
2018-04-27T05:23:51.963Z,30.50
2018-04-27T05:26:20.596Z,28.63
2018-04-27T05:28:48.136Z,29.20
2018-04-27T05:31:23.770Z,31.25
2018-04-27T05:33:52.059Z,24.23
2018-04-27T05:36:20.382Z,26.05
2018-04-27T05:38:47.945Z,28.93
2018-04-27T05:41:15.535Z,25.15
2018-04-27T05:43:43.063Z,33.93
2018-04-27T05:46:11.250Z,25.50
2018-04-27T05:48:38.784Z,30.80
2018-04-27T05:51:06.334Z,33.47
2018-04-27T05:53:33.891Z,27.10
2018-04-27T05:56:01.410Z,28.25
2018-04-27T05:58:29.706Z,29.80
2018-04-27T06:00:57.265Z,26.23
2018-04-27T06:03:25.106Z,30.30
2018-04-27T06:05:53.397Z,28.17
2018-04-27T06:08:22.669Z,24.93
2018-04-27T06:10:50.206Z,21.50
2018-04-27T06:13:17.743Z,25.83
2018-04-27T06:15:45.344Z,19.23
2018-04-27T06:18:15.395Z,22.08
2018-04-27T06:20:42.918Z,20.60
2018-04-27T06:23:10.483Z,18.47
2018-04-27T06:25:38.829Z,16.43
2018-04-27T06:28:06.338Z,17.58
2018-04-27T06:30:34.323Z,13.87
2018-04-27T06:33:02.559Z,11.70
2018-04-27T06:35:30.099Z,13.57
2018-04-27T06:37:57.667Z,13.77
2018-04-27T06:40:25.177Z,14.30
2018-04-27T06:42:52.736Z,12.80
2018-04-27T06:45:20.311Z,11.95
2018-04-27T06:47:47.852Z,9.63
2018-04-27T06:50:16.382Z,9.95
2018-04-27T06:52:44.404Z,9.57
2018-04-27T06:55:11.931Z,8.73
2018-04-27T06:57:40.223Z,18.35
2018-04-27T07:00:08.563Z,10.03
2018-04-27T07:02:36.079Z,12.03
2018-04-27T07:05:03.658Z,7.27
2018-04-27T07:07:31.984Z,6.97
2018-04-27T07:09:59.458Z,8.77
2018-04-27T07:12:26.991Z,12.43
2018-04-27T07:14:55.876Z,6.20
2018-04-27T07:17:24.159Z,6.10
2018-04-27T07:19:52.439Z,6.73
2018-04-27T07:22:20.783Z,9.18
2018-04-27T07:24:48.309Z,9.03
2018-04-27T07:27:16.439Z,8.17
2018-04-27T07:29:44.749Z,10.00
2018-04-27T07:32:12.275Z,9.80
2018-04-27T07:34:40.213Z,8.73
2018-04-27T07:37:08.327Z,9.23
2018-04-27T07:39:36.686Z,7.23
2018-04-27T07:42:05.012Z,6.60
2018-04-27T07:44:32.567Z,7.30
2018-04-27T07:47:00.939Z,6.97
2018-04-27T07:49:28.451Z,6.93
2018-04-27T07:51:56.018Z,7.90
2018-04-27T07:54:23.524Z,9.00
2018-04-27T07:56:51.051Z,7.53
2018-04-27T07:59:19.457Z,10.07
2018-04-27T08:01:46.995Z,6.87
2018-04-27T08:04:16.280Z,8.90
2018-04-27T08:06:44.595Z,11.97
2018-04-27T08:09:12.111Z,7.67
2018-04-27T08:11:39.619Z,8.67
2018-04-27T08:14:07.203Z,7.17
2018-04-27T08:16:34.724Z,9.20
2018-04-27T08:19:02.267Z,9.83
2018-04-27T08:21:30.382Z,8.60
2018-04-27T08:23:57.898Z,10.10
2018-04-27T08:26:29.098Z,8.87
2018-04-27T08:29:11.535Z,8.80
2018-04-27T08:31:40.191Z,6.23
2018-04-27T08:34:07.722Z,5.60
2018-04-27T08:36:37.085Z,10.70
2018-04-27T08:39:04.595Z,12.60
2018-04-27T08:41:32.138Z,6.53
2018-04-27T08:43:59.694Z,6.20
2018-04-27T08:46:27.232Z,5.90
2018-04-27T08:48:55.152Z,10.40
2018-04-27T08:51:22.751Z,8.63
2018-04-27T08:53:50.279Z,6.30
2018-04-27T08:56:18.315Z,7.27
2018-04-27T08:58:46.224Z,6.53
2018-04-27T09:01:15.543Z,7.90
2018-04-27T09:03:43.827Z,15.93
2018-04-27T09:06:11.407Z,11.33
2018-04-27T09:08:38.946Z,10.43
2018-04-27T09:11:06.505Z,7.62
2018-04-27T09:13:34.077Z,6.80
2018-04-27T09:16:01.589Z,7.53
2018-04-27T09:18:29.983Z,9.83
2018-04-27T09:20:59.031Z,6.13
2018-04-27T09:23:26.559Z,7.57
2018-04-27T09:25:54.081Z,8.23
2018-04-27T09:28:21.651Z,8.10
2018-04-27T09:30:49.959Z,6.67
2018-04-27T09:33:17.549Z,7.47
2018-04-27T09:35:45.138Z,9.40
2018-04-27T09:38:15.304Z,6.50
2018-04-27T09:40:42.832Z,5.67
2018-04-27T09:43:11.394Z,10.23
2018-04-27T09:45:38.959Z,4.53
2018-04-27T09:48:07.261Z,11.13
2018-04-27T09:50:34.924Z,10.60
2018-04-27T09:53:02.461Z,4.65
2018-04-27T09:55:30.742Z,6.83
2018-04-27T09:57:58.283Z,9.00
2018-04-27T10:00:25.835Z,9.73
2018-04-27T10:02:53.359Z,6.03
2018-04-27T10:05:21.204Z,9.43
2018-04-27T10:07:48.738Z,7.27
2018-04-27T10:10:16.419Z,5.77
2018-04-27T10:12:43.976Z,8.30
2018-04-27T10:15:11.526Z,7.65
2018-04-27T10:17:39.808Z,6.00
2018-04-27T10:20:07.434Z,6.40
2018-04-27T10:22:34.954Z,7.57
2018-04-27T10:25:02.484Z,8.38
2018-04-27T10:27:30.512Z,5.53
2018-04-27T10:29:58.037Z,9.50
2018-04-27T10:32:25.591Z,8.00
2018-04-27T10:34:53.271Z,8.57
2018-04-27T10:37:20.847Z,6.90
2018-04-27T10:39:48.967Z,10.23
2018-04-27T10:42:16.527Z,6.50
2018-04-27T10:44:44.051Z,10.20
2018-04-27T10:47:11.595Z,9.75
2018-04-27T10:49:39.489Z,9.10
2018-04-27T10:52:08.928Z,12.73
2018-04-27T10:54:36.492Z,11.07
2018-04-27T10:57:04.063Z,15.20
2018-04-27T10:59:31.576Z,12.27
2018-04-27T11:01:59.100Z,12.30
2018-04-27T11:04:26.663Z,19.60
2018-04-27T11:06:54.223Z,12.57
2018-04-27T11:09:21.755Z,9.90
2018-04-27T11:11:49.676Z,8.60
2018-04-27T11:14:17.199Z,9.80
2018-04-27T11:16:45.588Z,8.73
2018-04-27T11:19:12.326Z,12.80
2018-04-27T11:21:39.847Z,14.23
2018-04-27T11:24:07.468Z,10.67
2018-04-27T11:26:35.817Z,11.90
2018-04-27T11:29:03.502Z,9.77
2018-04-27T11:31:31.221Z,12.77
2018-04-27T11:33:59.608Z,13.13
2018-04-27T11:36:27.158Z,12.67
2018-04-27T11:38:54.707Z,11.87
2018-04-27T11:41:23.376Z,11.07
2018-04-27T11:43:50.893Z,10.20
2018-04-27T11:46:18.431Z,10.48
2018-04-27T11:48:46.799Z,11.20
2018-04-27T11:51:16.723Z,14.10
2018-04-27T11:58:53.604Z,10.90
2018-04-27T12:01:21.167Z,12.77
2018-04-27T12:03:48.716Z,13.43
2018-04-27T12:06:16.560Z,10.10
2018-04-27T12:08:45.131Z,13.50
2018-04-27T12:11:12.651Z,15.67
2018-04-27T12:13:40.233Z,15.73
2018-04-27T12:16:08.131Z,10.43
2018-04-27T12:18:35.655Z,8.63
2018-04-27T12:21:03.700Z,7.20
2018-04-27T12:23:31.219Z,12.95
2018-04-27T12:25:59.503Z,10.87
2018-04-27T12:28:27.055Z,10.77
2018-04-27T12:30:55.357Z,9.83
2018-04-27T12:33:22.887Z,9.87
2018-04-27T12:35:50.465Z,10.38
2018-04-27T12:38:17.985Z,14.03
2018-04-27T12:40:46.091Z,6.90
2018-04-27T12:43:15.715Z,18.53
2018-04-27T12:45:43.239Z,14.53
2018-04-27T12:48:11.529Z,7.57
2018-04-27T12:50:39.083Z,7.87
2018-04-27T12:53:06.627Z,11.73
2018-04-27T12:55:34.970Z,8.13
2018-04-27T12:58:02.524Z,28.17
2018-04-27T13:00:30.091Z,14.90
2018-04-27T13:02:57.603Z,9.80
2018-04-27T13:05:25.204Z,10.10
2018-04-27T13:07:52.798Z,6.40
2018-04-27T13:10:20.257Z,8.13
2018-04-27T13:12:48.590Z,6.37
2018-04-27T13:15:17.217Z,6.10
2018-04-27T13:17:45.503Z,9.23
2018-04-27T13:20:25.075Z,7.50
2018-04-27T13:25:31.867Z,10.13
2018-04-27T13:27:59.396Z,10.07
2018-04-27T13:30:26.936Z,9.45
2018-04-27T13:32:55.244Z,12.23
2018-04-27T13:35:22.788Z,8.13
2018-04-27T13:37:50.436Z,6.63
2018-04-27T13:40:18.738Z,10.77
2018-04-27T13:42:46.309Z,5.73
2018-04-27T13:45:20.534Z,6.55
2018-04-27T13:50:44.462Z,8.20
2018-04-27T13:53:12.005Z,6.10
2018-04-27T13:55:39.522Z,9.20
2018-04-27T13:58:07.875Z,5.50
2018-04-27T14:00:35.486Z,8.60
2018-04-27T14:03:03.085Z,10.00
2018-04-27T14:05:31.520Z,7.60
2018-04-27T14:07:59.057Z,7.20
2018-04-27T14:10:26.568Z,9.60
2018-04-27T14:12:54.354Z,5.93
2018-04-27T14:15:22.721Z,7.80
2018-04-27T14:17:50.241Z,8.50
2018-04-27T14:20:17.789Z,8.77
2018-04-27T14:22:45.299Z,8.73
2018-04-27T14:25:24.895Z,8.15
2018-04-27T14:33:50.581Z,10.40
2018-04-27T14:36:18.806Z,7.65
2018-04-27T14:38:46.331Z,5.60
2018-04-27T14:41:15.146Z,5.00
2018-04-27T14:43:43.448Z,9.00
2018-04-27T14:46:11.776Z,8.27
2018-04-27T14:48:40.089Z,7.17
2018-04-27T14:51:07.624Z,10.37
2018-04-27T14:53:35.917Z,5.67
2018-04-27T14:56:03.560Z,5.97
2018-04-27T14:58:31.278Z,17.10
2018-04-27T15:00:58.902Z,7.23
2018-04-27T15:03:26.661Z,11.75
2018-04-27T15:05:54.267Z,7.90
2018-04-27T15:08:21.706Z,8.53
2018-04-27T15:10:49.316Z,7.53
2018-04-27T15:13:16.850Z,6.77
2018-04-27T15:15:44.395Z,7.90
2018-04-27T15:18:12.020Z,8.53
2018-04-27T15:20:39.547Z,8.90
2018-04-27T15:23:07.072Z,10.73
2018-04-27T15:25:34.668Z,5.27
2018-04-27T15:28:02.183Z,8.70
2018-04-27T15:30:29.687Z,6.50
2018-04-27T15:32:58.074Z,4.80
2018-04-27T15:35:25.587Z,5.80
2018-04-27T15:37:53.107Z,8.23
2018-04-27T15:40:20.676Z,16.67
2018-04-27T15:42:48.187Z,7.10
2018-04-27T15:45:16.464Z,6.37
2018-04-27T15:47:45.557Z,9.77
2018-04-27T15:50:14.622Z,5.20
2018-04-27T15:52:42.906Z,11.30
2018-04-27T15:55:10.469Z,5.30
2018-04-27T15:57:37.979Z,5.00
2018-04-27T16:00:06.344Z,7.28
2018-04-27T16:02:33.890Z,4.65
2018-04-27T16:05:01.437Z,6.53
2018-04-27T16:07:29.795Z,6.40
2018-04-27T16:09:57.969Z,5.60
2018-04-27T16:12:25.563Z,4.97
2018-04-27T16:14:53.107Z,7.13
2018-04-27T16:17:21.495Z,14.83
2018-04-27T16:19:49.059Z,9.07
2018-04-27T16:22:17.873Z,14.40
2018-04-27T16:24:45.423Z,8.50
2018-04-27T16:27:13.646Z,7.87
2018-04-27T16:33:46.214Z,8.20
2018-04-27T16:36:15.513Z,7.20
2018-04-27T16:38:43.030Z,11.40
2018-04-27T16:41:10.574Z,7.50
2018-04-27T16:43:38.100Z,10.30
2018-04-27T16:46:05.660Z,6.37
2018-04-27T16:48:33.528Z,13.40
2018-04-27T16:51:01.082Z,12.10
2018-04-27T16:53:28.599Z,9.03
2018-04-27T16:55:57.248Z,8.93
2018-04-27T16:58:25.046Z,6.07
2018-04-27T17:00:52.568Z,8.45
2018-04-27T17:03:20.920Z,8.07
2018-04-27T17:05:48.854Z,11.55
2018-04-27T17:08:17.342Z,15.68
2018-04-27T17:10:45.102Z,8.23
2018-04-27T17:13:14.371Z,10.43
2018-04-27T17:15:41.903Z,6.30
2018-04-27T17:18:10.096Z,8.13
2018-04-27T17:20:37.663Z,10.68
2018-04-27T17:23:05.190Z,6.30
2018-04-27T17:25:32.783Z,6.62
2018-04-27T17:28:00.884Z,6.77
2018-04-27T17:30:28.434Z,12.27
2018-04-27T17:32:56.767Z,10.63
2018-04-27T17:35:25.408Z,8.43
2018-04-27T17:37:56.516Z,17.47
2018-04-27T17:40:24.570Z,6.57
2018-04-27T17:42:52.097Z,15.60
2018-04-27T17:45:19.639Z,9.80
2018-04-27T17:47:47.214Z,12.47
2018-04-27T17:50:16.790Z,8.35
2018-04-27T17:52:44.346Z,6.57
2018-04-27T17:55:12.670Z,7.90
2018-04-27T17:57:40.220Z,9.00
2018-04-27T18:00:07.735Z,8.80
2018-04-27T18:02:35.857Z,17.70
2018-04-27T18:05:03.509Z,7.60
2018-04-27T18:07:31.077Z,10.23
2018-04-27T18:09:58.832Z,16.30
2018-04-27T18:12:26.434Z,7.50
2018-04-27T18:14:54.031Z,11.30
2018-04-27T18:17:21.660Z,10.70
2018-04-27T18:19:49.470Z,10.60
2018-04-27T18:22:17.447Z,10.10
2018-04-27T18:24:45.446Z,14.97
2018-04-27T18:27:14.749Z,14.00
2018-04-27T18:33:46.820Z,15.03
2018-04-27T18:36:15.707Z,20.87
2018-04-27T18:38:43.222Z,13.23
2018-04-27T18:41:12.462Z,9.83
2018-04-27T18:43:39.989Z,18.37
2018-04-27T18:46:08.292Z,10.57
2018-04-27T18:48:36.583Z,9.80
2018-04-27T18:51:04.676Z,11.73
2018-04-27T18:53:33.025Z,16.40
2018-04-27T18:56:00.592Z,11.63
2018-04-27T18:58:28.916Z,16.43
2018-04-27T19:00:56.477Z,12.73
2018-04-27T19:03:26.157Z,15.23
2018-04-27T19:05:54.512Z,11.67
2018-04-27T19:08:22.066Z,11.77
2018-04-27T19:10:49.636Z,15.57
2018-04-27T19:13:18.427Z,11.20
2018-04-27T19:15:46.786Z,13.17
2018-04-27T19:18:19.256Z,11.20
2018-04-27T19:20:46.787Z,16.10
2018-04-27T19:23:15.216Z,16.40
2018-04-27T19:33:52.068Z,9.80
2018-04-27T19:36:19.693Z,16.73
2018-04-27T19:38:48.429Z,18.70
2018-04-27T19:41:16.688Z,11.93
2018-04-27T19:43:44.479Z,21.27
2018-04-27T19:46:13.700Z,15.23
2018-04-27T19:48:41.308Z,17.30
2018-04-27T19:51:09.292Z,10.80
2018-04-27T19:53:36.827Z,11.23
2018-04-27T19:56:04.402Z,28.13
2018-04-27T19:58:32.016Z,29.50
2018-04-27T20:00:59.800Z,12.67
2018-04-27T20:03:27.433Z,15.60
2018-04-27T20:05:55.205Z,13.03
2018-04-27T20:08:22.784Z,9.90
2018-04-27T20:10:50.582Z,14.33
2018-04-27T20:13:19.425Z,17.30
2018-04-27T20:15:49.287Z,11.23
2018-04-27T20:18:22.982Z,10.83
2018-04-27T20:20:50.459Z,12.40
2018-04-27T20:23:18.745Z,11.30
2018-04-27T20:25:46.326Z,15.13
2018-04-27T20:28:16.819Z,9.13
2018-04-27T20:30:45.172Z,13.80
2018-04-27T20:33:15.367Z,14.37
2018-04-27T20:35:42.918Z,9.13
2018-04-27T20:38:21.218Z,16.50
2018-04-27T20:40:48.721Z,12.27
2018-04-27T20:43:16.723Z,9.25
2018-04-27T20:45:44.286Z,10.37
2018-04-27T20:48:15.358Z,12.60
2018-04-27T20:50:49.976Z,12.33
2018-04-27T20:53:18.870Z,10.75
2018-04-27T20:55:53.437Z,17.77
2018-04-27T20:58:21.855Z,13.67
2018-04-27T21:00:49.479Z,9.67
2018-04-27T21:03:17.058Z,13.70
2018-04-27T21:05:44.602Z,12.73
2018-04-27T21:08:12.123Z,14.57
2018-04-27T21:10:40.426Z,13.77
2018-04-27T21:13:08.109Z,15.63
2018-04-27T21:15:35.789Z,18.37
2018-04-27T21:18:06.559Z,20.13
2018-04-27T21:20:34.795Z,17.17
2018-04-27T21:23:03.252Z,31.57
2018-04-27T21:25:41.203Z,18.70
2018-04-27T21:28:14.340Z,14.83
2018-04-27T21:30:45.242Z,15.83
2018-04-27T21:33:13.686Z,14.03
2018-04-27T21:35:48.007Z,13.13
2018-04-27T21:41:42.447Z,13.37
2018-04-27T21:44:13.485Z,16.67
2018-04-27T21:46:41.007Z,17.87
2018-04-27T21:49:13.011Z,13.75
2018-04-27T21:51:41.334Z,12.77
2018-04-27T21:54:10.334Z,12.47
2018-04-27T21:56:40.339Z,15.10
2018-04-27T21:59:08.648Z,12.85
2018-04-27T22:01:36.175Z,13.10
2018-04-27T22:04:03.734Z,17.90
2018-04-27T22:06:33.834Z,15.95
2018-04-27T22:09:02.061Z,12.37
2018-04-27T22:11:32.966Z,14.63
2018-04-27T22:14:01.259Z,11.57
2018-04-27T22:16:31.007Z,11.40
2018-04-27T22:18:58.603Z,18.70
2018-04-27T22:21:26.153Z,15.60
2018-04-27T22:24:04.321Z,11.73
2018-04-27T22:26:31.839Z,11.20
2018-04-27T22:29:00.119Z,14.20
2018-04-27T22:31:28.447Z,14.77
2018-04-27T22:34:02.603Z,11.67
2018-04-27T22:36:34.835Z,13.40
2018-04-27T22:42:13.918Z,12.80
2018-04-27T22:44:47.902Z,15.80
2018-04-27T22:47:20.383Z,12.93
2018-04-27T22:49:47.899Z,12.73
2018-04-27T22:52:17.174Z,15.20
2018-04-27T22:54:52.012Z,13.57
2018-04-27T22:57:35.332Z,14.63
2018-04-27T23:00:18.534Z,12.47
2018-04-27T23:02:47.593Z,16.23
2018-04-27T23:05:19.135Z,15.02
2018-04-27T23:07:47.464Z,14.57
2018-04-27T23:10:17.322Z,12.65
2018-04-27T23:15:41.402Z,12.53
2018-04-27T23:18:11.549Z,13.90
2018-04-27T23:20:39.071Z,13.20
2018-04-27T23:23:06.630Z,14.07
2018-04-27T23:25:36.067Z,15.20
2018-04-27T23:28:03.577Z,15.80
2018-04-27T23:30:33.274Z,13.30
2018-04-27T23:33:01.496Z,14.33
2018-04-27T23:35:29.007Z,14.23
2018-04-27T23:37:56.573Z,13.30
2018-04-27T23:40:24.142Z,14.93
2018-04-27T23:42:52.431Z,15.10
2018-04-27T23:45:20.710Z,14.63
2018-04-27T23:47:48.265Z,15.73
2018-04-27T23:50:17.233Z,16.77
2018-04-27T23:52:44.759Z,15.57
2018-04-27T23:55:13.339Z,15.03
2018-04-27T23:57:49.587Z,22.03
